createdAt,value
2022-10-01T00:01:14.941Z,12.50
2022-10-01T00:03:42.249Z,12.50
2022-10-01T00:06:17.788Z,12.50
2022-10-01T00:08:49.256Z,12.50
2022-10-01T00:11:19.310Z,12.50
2022-10-01T00:13:46.637Z,12.50
2022-10-01T00:16:27.697Z,12.50
2022-10-01T00:18:54.794Z,12.50
2022-10-01T00:21:27.317Z,12.50
2022-10-01T00:23:56.327Z,12.40
2022-10-01T00:26:27.274Z,12.40
2022-10-01T00:28:57.191Z,12.40
2022-10-01T00:31:25.203Z,12.30
2022-10-01T00:33:58.263Z,12.30
2022-10-01T00:36:25.666Z,12.30
2022-10-01T00:38:52.549Z,12.30
2022-10-01T00:41:19.825Z,12.30
2022-10-01T00:43:50.457Z,12.30
2022-10-01T00:46:36.673Z,12.30
2022-10-01T00:49:10.224Z,12.30
2022-10-01T00:51:45.666Z,12.20
2022-10-01T00:54:19.447Z,12.20
2022-10-01T00:56:46.786Z,12.20
2022-10-01T00:59:16.353Z,12.20
2022-10-01T01:01:43.243Z,12.20
2022-10-01T01:04:16.734Z,12.20
2022-10-01T01:06:57.835Z,12.20
2022-10-01T01:09:33.706Z,12.20
2022-10-01T01:12:28.134Z,12.20
2022-10-01T01:15:31.668Z,12.20
2022-10-01T01:18:17.935Z,12.20
2022-10-01T01:21:09.338Z,12.20
2022-10-01T01:23:47.891Z,12.20
2022-10-01T01:26:30.186Z,12.10
2022-10-01T01:29:11.123Z,12.10
2022-10-01T01:31:46.199Z,12.10
2022-10-01T01:34:21.472Z,12.10
2022-10-01T01:36:58.700Z,12.10
2022-10-01T01:39:30.097Z,12.10
2022-10-01T01:42:01.064Z,12.10
2022-10-01T01:44:33.567Z,12.10
2022-10-01T01:47:02.120Z,12.10
2022-10-01T01:49:29.871Z,12.10
2022-10-01T01:52:08.226Z,12.00
2022-10-01T01:54:36.521Z,12.00
2022-10-01T01:57:04.390Z,12.00
2022-10-01T01:59:33.857Z,12.00
2022-10-01T02:02:01.092Z,12.00
2022-10-01T02:04:31.482Z,12.00
2022-10-01T02:07:16.168Z,12.00
2022-10-01T02:09:59.755Z,12.00
2022-10-01T02:12:48.115Z,12.00
2022-10-01T02:15:27.829Z,11.90
2022-10-01T02:18:07.486Z,11.90
2022-10-01T02:20:50.357Z,11.90
2022-10-01T02:23:27.182Z,11.90
2022-10-01T02:25:59.109Z,11.90
2022-10-01T02:28:25.941Z,11.90
2022-10-01T02:30:55.604Z,11.90
2022-10-01T02:33:27.254Z,11.90
2022-10-01T02:35:56.050Z,11.90
2022-10-01T02:38:24.517Z,11.90
2022-10-01T02:40:55.255Z,11.90
2022-10-01T02:43:32.181Z,11.90
2022-10-01T02:46:09.916Z,11.90
2022-10-01T02:48:37.154Z,11.80
2022-10-01T02:51:42.764Z,11.90
2022-10-01T02:54:28.155Z,11.80
2022-10-01T02:57:13.939Z,11.90
2022-10-01T02:59:40.702Z,11.80
2022-10-01T03:02:07.505Z,11.80
2022-10-01T03:04:34.242Z,11.80
2022-10-01T03:07:03.889Z,11.80
2022-10-01T03:09:31.509Z,11.80
2022-10-01T03:11:59.449Z,11.80
2022-10-01T03:14:26.205Z,11.80
2022-10-01T03:16:53.845Z,11.80
2022-10-01T03:19:21.116Z,11.90
2022-10-01T03:21:48.270Z,11.90
2022-10-01T03:24:14.985Z,11.90
2022-10-01T03:26:41.806Z,11.90
2022-10-01T03:29:09.600Z,11.90
2022-10-01T03:31:37.643Z,11.90
2022-10-01T03:34:04.539Z,11.90
2022-10-01T03:36:31.179Z,11.90
2022-10-01T03:38:57.972Z,11.90
2022-10-01T03:41:24.702Z,11.90
2022-10-01T03:43:51.419Z,11.90
2022-10-01T03:46:18.215Z,11.90
2022-10-01T03:48:44.866Z,11.90
2022-10-01T03:51:11.550Z,11.90
2022-10-01T03:53:38.570Z,11.90
2022-10-01T03:56:05.434Z,11.90
2022-10-01T03:58:32.141Z,11.90
2022-10-01T04:01:00.529Z,11.90
2022-10-01T04:03:27.923Z,11.80
2022-10-01T04:05:54.572Z,11.80
2022-10-01T04:08:24.347Z,11.80
2022-10-01T04:10:51.437Z,11.80
2022-10-01T04:13:18.359Z,11.80
2022-10-01T04:15:45.120Z,11.80
2022-10-01T04:18:12.171Z,11.80
2022-10-01T04:20:39.073Z,11.80
2022-10-01T04:23:05.873Z,11.80
2022-10-01T04:25:32.604Z,11.70
2022-10-01T04:28:07.832Z,11.80
2022-10-01T04:30:37.352Z,11.70
2022-10-01T04:33:05.390Z,11.70
2022-10-01T04:35:32.278Z,11.70
2022-10-01T04:38:03.453Z,11.70
2022-10-01T04:40:31.400Z,11.70
2022-10-01T04:42:58.078Z,11.70
2022-10-01T04:45:24.844Z,11.70
2022-10-01T04:47:55.905Z,11.70
2022-10-01T04:50:26.239Z,11.70
2022-10-01T04:52:53.564Z,11.70
2022-10-01T04:55:21.718Z,11.70
2022-10-01T04:57:48.691Z,11.70
2022-10-01T05:00:21.775Z,11.70
2022-10-01T05:02:49.758Z,11.70
2022-10-01T05:05:18.498Z,11.70
2022-10-01T05:07:45.407Z,11.70
2022-10-01T05:10:15.658Z,11.70
2022-10-01T05:12:43.579Z,11.70
2022-10-01T05:15:10.738Z,11.70
2022-10-01T05:17:37.540Z,11.70
2022-10-01T05:20:07.105Z,11.70
2022-10-01T05:22:33.975Z,11.70
2022-10-01T05:25:01.420Z,11.70
2022-10-01T05:27:30.374Z,11.70
2022-10-01T05:29:57.165Z,11.70
2022-10-01T05:32:24.551Z,11.70
2022-10-01T05:34:53.619Z,11.70
2022-10-01T05:37:20.943Z,11.70
2022-10-01T05:39:47.856Z,11.70
2022-10-01T05:42:14.583Z,11.70
2022-10-01T05:44:46.113Z,11.70
2022-10-01T05:47:13.904Z,11.70
2022-10-01T05:49:42.895Z,11.70
2022-10-01T05:52:10.864Z,11.70
2022-10-01T05:54:38.237Z,11.70
2022-10-01T05:57:06.014Z,11.70
2022-10-01T05:59:32.717Z,11.80
2022-10-01T06:01:59.566Z,11.80
2022-10-01T06:04:26.747Z,11.80
2022-10-01T06:06:54.193Z,11.80
2022-10-01T06:09:20.850Z,11.80
2022-10-01T06:11:48.829Z,11.80
2022-10-01T06:14:16.173Z,11.70
2022-10-01T06:16:42.988Z,11.80
2022-10-01T06:19:10.029Z,11.80
2022-10-01T06:21:37.100Z,11.80
2022-10-01T06:24:04.283Z,11.80
2022-10-01T06:26:31.208Z,11.80
2022-10-01T06:28:57.957Z,11.80
2022-10-01T06:31:25.327Z,11.80
2022-10-01T06:33:52.173Z,11.80
2022-10-01T06:36:18.825Z,11.80
2022-10-01T06:38:49.491Z,11.80
2022-10-01T06:41:16.473Z,11.80
2022-10-01T06:43:43.188Z,11.80
2022-10-01T06:46:11.105Z,11.80
2022-10-01T06:48:37.942Z,11.90
2022-10-01T06:51:05.687Z,11.90
2022-10-01T06:53:32.619Z,11.90
2022-10-01T06:56:05.344Z,11.90
2022-10-01T06:58:32.142Z,11.90
2022-10-01T07:01:01.450Z,11.90
2022-10-01T07:03:28.836Z,11.90
2022-10-01T07:06:04.657Z,11.90
2022-10-01T07:08:33.101Z,11.90
2022-10-01T07:11:02.620Z,11.90
2022-10-01T07:13:29.491Z,12.00
2022-10-01T07:15:56.405Z,12.00
2022-10-01T07:18:23.939Z,12.00
2022-10-01T07:20:50.714Z,12.00
2022-10-01T07:23:17.460Z,12.00
2022-10-01T07:25:45.038Z,12.00
2022-10-01T07:28:18.745Z,12.00
2022-10-01T07:31:00.678Z,12.00
2022-10-01T07:33:27.934Z,12.00
2022-10-01T07:35:55.017Z,12.00
2022-10-01T07:38:21.816Z,12.00
2022-10-01T07:40:52.925Z,12.00
2022-10-01T07:43:19.682Z,12.00
2022-10-01T07:45:55.138Z,12.00
2022-10-01T07:48:22.002Z,12.00
2022-10-01T07:50:48.758Z,12.00
2022-10-01T07:53:15.583Z,12.00
2022-10-01T07:55:42.608Z,12.00
2022-10-01T07:58:10.013Z,12.00
2022-10-01T08:00:36.690Z,12.00
2022-10-01T08:03:03.877Z,12.00
2022-10-01T08:05:33.419Z,12.00
2022-10-01T08:08:05.091Z,12.00
2022-10-01T08:10:35.331Z,12.00
2022-10-01T08:13:17.433Z,12.00
2022-10-01T08:15:46.720Z,12.10
2022-10-01T08:18:14.292Z,12.00
2022-10-01T08:20:41.066Z,12.00
2022-10-01T08:23:10.641Z,12.00
2022-10-01T08:25:38.052Z,12.00
2022-10-01T08:28:05.051Z,12.00
2022-10-01T08:30:31.979Z,12.00
2022-10-01T08:33:02.033Z,12.00
2022-10-01T08:35:29.094Z,12.00
2022-10-01T08:38:01.015Z,12.10
2022-10-01T08:40:27.836Z,12.10
2022-10-01T08:42:59.887Z,12.10
2022-10-01T08:45:36.140Z,12.10
2022-10-01T08:48:22.302Z,12.10
2022-10-01T08:51:04.838Z,12.10
2022-10-01T08:53:55.294Z,12.10
2022-10-01T08:56:28.029Z,12.10
2022-10-01T08:59:00.307Z,12.10
2022-10-01T09:01:27.300Z,12.10
2022-10-01T09:03:54.513Z,12.20
2022-10-01T09:06:25.403Z,12.20
2022-10-01T09:09:03.375Z,12.20
2022-10-01T09:11:50.437Z,12.20
2022-10-01T09:14:17.375Z,12.20
2022-10-01T09:17:06.326Z,12.30
2022-10-01T09:19:58.008Z,12.30
2022-10-01T09:22:41.271Z,12.30
2022-10-01T09:25:27.699Z,12.30
2022-10-01T09:28:11.365Z,12.30
2022-10-01T09:30:48.053Z,12.40
2022-10-01T09:33:18.089Z,12.40
2022-10-01T09:35:49.532Z,12.40
2022-10-01T09:38:22.349Z,12.40
2022-10-01T09:40:58.328Z,12.40
2022-10-01T09:43:30.873Z,12.40
2022-10-01T09:45:58.091Z,12.40
2022-10-01T09:48:31.116Z,12.40
2022-10-01T09:51:19.858Z,12.40
2022-10-01T09:54:04.388Z,12.40
2022-10-01T09:56:37.361Z,12.40
2022-10-01T09:59:11.614Z,12.40
2022-10-01T10:01:52.014Z,12.50
2022-10-01T10:04:21.270Z,12.50
2022-10-01T10:06:48.303Z,12.50
2022-10-01T10:09:18.596Z,12.60
2022-10-01T10:11:46.024Z,12.60
2022-10-01T10:14:28.343Z,12.60
2022-10-01T10:16:55.889Z,12.70
2022-10-01T10:19:26.792Z,12.60
2022-10-01T10:21:57.464Z,12.70
2022-10-01T10:24:30.993Z,12.70
2022-10-01T10:27:00.238Z,12.70
2022-10-01T10:29:30.989Z,12.70
2022-10-01T10:31:59.633Z,12.80
2022-10-01T10:34:42.202Z,12.70
2022-10-01T10:37:29.986Z,12.70
2022-10-01T10:39:58.248Z,12.70
2022-10-01T10:42:26.066Z,12.70
2022-10-01T10:44:58.424Z,12.70
2022-10-01T10:47:28.396Z,12.70
2022-10-01T10:49:58.692Z,12.70
2022-10-01T10:52:29.987Z,12.70
2022-10-01T10:54:59.173Z,12.70
2022-10-01T10:57:30.123Z,12.70
2022-10-01T11:00:00.758Z,12.70
2022-10-01T11:02:33.169Z,12.70
2022-10-01T11:05:16.920Z,12.70
2022-10-01T11:07:46.615Z,12.80
2022-10-01T11:10:31.068Z,12.80
2022-10-01T11:13:34.609Z,12.90
2022-10-01T11:16:30.215Z,12.90
2022-10-01T11:19:07.740Z,12.90
2022-10-01T11:21:56.051Z,13.00
2022-10-01T11:24:45.917Z,13.00
2022-10-01T11:27:37.663Z,13.00
2022-10-01T11:30:09.555Z,13.00
2022-10-01T11:32:47.378Z,13.00
2022-10-01T11:35:20.241Z,13.10
2022-10-01T11:37:59.891Z,13.10
2022-10-01T11:40:39.367Z,13.10
2022-10-01T11:43:24.682Z,13.10
2022-10-01T11:45:56.555Z,13.10
2022-10-01T11:48:33.890Z,13.20
2022-10-01T11:51:14.358Z,13.10
2022-10-01T11:54:03.968Z,13.20
2022-10-01T11:56:55.435Z,13.20
2022-10-01T11:59:24.714Z,13.20
2022-10-01T12:02:19.976Z,13.20
2022-10-01T12:04:57.304Z,13.20
2022-10-01T12:07:43.755Z,13.20
2022-10-01T12:10:49.136Z,13.20
2022-10-01T12:13:15.957Z,13.30
2022-10-01T12:16:07.145Z,13.30
2022-10-01T12:18:45.460Z,13.30
2022-10-01T12:21:29.213Z,13.30
2022-10-01T12:24:13.009Z,13.30
2022-10-01T12:26:47.221Z,13.30
2022-10-01T12:29:34.555Z,13.40
2022-10-01T12:32:23.639Z,13.40
2022-10-01T12:35:11.458Z,13.40
2022-10-01T12:38:02.853Z,13.50
2022-10-01T12:41:00.102Z,13.50
2022-10-01T12:43:46.029Z,13.50
2022-10-01T12:46:25.243Z,13.50
2022-10-01T12:49:22.344Z,13.60
2022-10-01T12:52:17.010Z,13.60
2022-10-01T12:54:58.776Z,13.60
2022-10-01T12:58:00.650Z,13.70
2022-10-01T13:00:33.546Z,13.80
2022-10-01T13:03:32.968Z,13.80
2022-10-01T13:06:37.586Z,13.80
2022-10-01T13:09:08.239Z,13.80
2022-10-01T13:12:13.965Z,13.90
2022-10-01T13:14:44.353Z,14.00
2022-10-01T13:17:31.445Z,14.10
2022-10-01T13:20:11.520Z,14.20
2022-10-01T13:23:16.169Z,14.20
2022-10-01T13:25:58.497Z,14.40
2022-10-01T13:28:46.059Z,14.40
2022-10-01T13:31:15.795Z,14.50
2022-10-01T13:33:53.229Z,14.60
2022-10-01T13:36:29.463Z,14.60
2022-10-01T13:38:56.168Z,14.70
2022-10-01T13:41:27.200Z,14.70
2022-10-01T13:44:03.550Z,14.80
2022-10-01T13:46:35.513Z,14.90
2022-10-01T13:49:07.563Z,14.90
2022-10-01T13:51:36.593Z,14.90
2022-10-01T13:54:09.225Z,15.00
2022-10-01T13:56:37.884Z,15.10
2022-10-01T13:59:26.449Z,15.20
2022-10-01T14:01:53.337Z,15.40
2022-10-01T14:04:20.086Z,15.60
2022-10-01T14:07:01.118Z,15.60
2022-10-01T14:09:31.244Z,15.70
2022-10-01T14:12:27.243Z,15.60
2022-10-01T14:15:14.520Z,15.60
2022-10-01T14:17:43.544Z,15.60
2022-10-01T14:20:18.640Z,15.60
2022-10-01T14:23:03.307Z,15.60
2022-10-01T14:25:53.491Z,15.60
2022-10-01T14:28:38.560Z,15.60
2022-10-01T14:31:28.435Z,15.60
2022-10-01T14:34:07.186Z,15.60
2022-10-01T14:36:49.467Z,15.50
2022-10-01T14:39:21.799Z,15.50
2022-10-01T14:41:50.341Z,15.50
2022-10-01T14:44:36.279Z,15.50
2022-10-01T14:47:12.595Z,15.60
2022-10-01T14:49:39.380Z,15.60
2022-10-01T14:52:14.868Z,15.50
2022-10-01T14:54:56.504Z,15.50
2022-10-01T14:57:36.173Z,15.50
2022-10-01T15:00:11.412Z,15.50
2022-10-01T15:02:48.651Z,15.50
2022-10-01T15:05:27.631Z,15.50
2022-10-01T15:07:54.614Z,15.50
2022-10-01T15:10:25.795Z,15.60
2022-10-01T15:12:55.169Z,15.50
2022-10-01T15:15:39.272Z,15.50
2022-10-01T15:18:06.667Z,15.50
2022-10-01T15:20:34.403Z,15.50
2022-10-01T15:23:01.837Z,15.50
2022-10-01T15:25:31.409Z,15.50
2022-10-01T15:27:58.216Z,15.50
2022-10-01T15:30:27.761Z,15.50
2022-10-01T15:32:54.977Z,15.40
2022-10-01T15:35:23.713Z,15.50
2022-10-01T15:37:51.782Z,15.40
2022-10-01T15:40:25.009Z,15.50
2022-10-01T15:43:22.920Z,15.40
2022-10-01T15:46:09.545Z,15.40
2022-10-01T15:48:36.637Z,15.40
2022-10-01T15:51:07.596Z,15.40
2022-10-01T15:53:35.446Z,15.40
2022-10-01T15:56:13.028Z,15.40
2022-10-01T15:58:47.835Z,15.40
2022-10-01T16:01:22.064Z,15.40
2022-10-01T16:03:54.307Z,15.40
2022-10-01T16:06:37.339Z,15.30
2022-10-01T16:09:05.059Z,15.30
2022-10-01T16:11:33.119Z,15.30
2022-10-01T16:14:18.539Z,15.30
2022-10-01T16:16:45.438Z,15.30
2022-10-01T16:19:29.810Z,15.30
2022-10-01T16:22:20.108Z,15.30
2022-10-01T16:24:52.523Z,15.30
2022-10-01T16:27:40.588Z,15.20
2022-10-01T16:30:07.271Z,15.30
2022-10-01T16:32:34.915Z,15.20
2022-10-01T16:35:20.795Z,15.20
2022-10-01T16:37:49.545Z,15.20
2022-10-01T16:40:18.843Z,15.20
2022-10-01T16:42:46.705Z,15.10
2022-10-01T16:45:15.844Z,15.10
2022-10-01T16:47:42.870Z,15.10
2022-10-01T16:50:16.151Z,15.10
2022-10-01T16:52:42.949Z,15.10
2022-10-01T16:55:22.719Z,15.10
2022-10-01T16:57:50.919Z,15.10
2022-10-01T17:00:20.203Z,15.10
2022-10-01T17:02:46.990Z,15.10
2022-10-01T17:05:20.051Z,15.10
2022-10-01T17:07:46.943Z,15.10
2022-10-01T17:10:15.154Z,15.10
2022-10-01T17:12:42.836Z,15.10
2022-10-01T17:15:18.083Z,15.10
2022-10-01T17:17:46.121Z,15.10
2022-10-01T17:20:14.247Z,15.10
2022-10-01T17:22:43.290Z,15.10
2022-10-01T17:25:24.914Z,15.10
2022-10-01T17:27:51.933Z,15.10
2022-10-01T17:30:18.726Z,15.10
2022-10-01T17:32:46.552Z,15.00
2022-10-01T17:35:14.618Z,15.10
2022-10-01T17:37:41.968Z,15.00
2022-10-01T17:40:10.164Z,15.00
2022-10-01T17:42:37.107Z,15.00
2022-10-01T17:45:07.585Z,15.00
2022-10-01T17:47:34.397Z,15.10
2022-10-01T17:50:01.235Z,15.00
2022-10-01T17:52:28.012Z,15.00
2022-10-01T17:54:54.684Z,15.00
2022-10-01T17:57:21.494Z,15.00
2022-10-01T17:59:48.206Z,15.00
2022-10-01T18:02:39.890Z,15.00
2022-10-01T18:05:03.572Z,15.00
2022-10-01T18:07:30.379Z,15.00
2022-10-01T18:09:57.145Z,15.00
2022-10-01T18:12:23.929Z,15.00
2022-10-01T18:14:50.736Z,15.00
2022-10-01T18:17:18.101Z,15.00
2022-10-01T18:19:53.702Z,15.00
2022-10-01T18:22:21.387Z,15.00
2022-10-01T18:24:48.142Z,15.00
2022-10-01T18:27:15.247Z,15.00
2022-10-01T18:29:42.024Z,15.00
2022-10-01T18:32:21.796Z,15.00
2022-10-01T18:35:27.860Z,14.90
2022-10-01T18:38:21.530Z,14.90
2022-10-01T18:40:56.701Z,14.90
2022-10-01T18:43:25.665Z,15.00
2022-10-01T18:45:58.578Z,14.90
2022-10-01T18:48:28.038Z,14.90
2022-10-01T18:51:24.730Z,14.90
2022-10-01T18:54:26.379Z,14.90
2022-10-01T18:57:06.557Z,14.90
2022-10-01T18:59:46.474Z,14.90
2022-10-01T19:02:48.103Z,14.80
2022-10-01T19:05:39.984Z,14.80
2022-10-01T19:08:44.193Z,14.80
2022-10-01T19:11:13.448Z,14.80
2022-10-01T19:14:22.824Z,14.80
2022-10-01T19:17:05.252Z,14.70
2022-10-01T19:19:54.363Z,14.80
2022-10-01T19:22:50.067Z,14.80
2022-10-01T19:25:30.170Z,14.70
2022-10-01T19:28:35.358Z,14.70
2022-10-01T19:31:24.773Z,14.70
2022-10-01T19:34:07.810Z,14.70
2022-10-01T19:36:40.163Z,14.70
2022-10-01T19:39:15.933Z,14.70
2022-10-01T19:41:44.951Z,14.70
2022-10-01T19:44:20.955Z,14.70
2022-10-01T19:46:50.175Z,14.70
2022-10-01T19:49:27.571Z,14.70
2022-10-01T19:52:12.746Z,14.70
2022-10-01T19:54:45.096Z,14.70
2022-10-01T19:57:21.048Z,14.70
2022-10-01T19:59:48.499Z,14.70
2022-10-01T20:02:32.126Z,14.70
2022-10-01T20:05:06.144Z,14.70
2022-10-01T20:07:47.468Z,14.60
2022-10-01T20:10:17.095Z,14.70
2022-10-01T20:12:49.792Z,14.70
2022-10-01T20:15:44.034Z,14.70
2022-10-01T20:18:20.929Z,14.70
2022-10-01T20:21:17.886Z,14.70
2022-10-01T20:24:13.634Z,14.70
2022-10-01T20:26:55.024Z,14.70
2022-10-01T20:29:43.374Z,14.70
2022-10-01T20:32:26.967Z,14.70
2022-10-01T20:35:08.448Z,14.70
2022-10-01T20:37:50.251Z,14.70
2022-10-01T20:40:26.226Z,14.70
2022-10-01T20:43:17.506Z,14.70
2022-10-01T20:45:47.297Z,14.70
2022-10-01T20:48:19.530Z,14.70
2022-10-01T20:50:50.978Z,14.70
2022-10-01T20:53:31.414Z,14.70
2022-10-01T20:56:18.064Z,14.70
2022-10-01T20:58:53.683Z,14.70
2022-10-01T21:01:24.612Z,14.70
2022-10-01T21:04:01.591Z,14.70
2022-10-01T21:06:36.971Z,14.70
2022-10-01T21:09:14.861Z,14.70
2022-10-01T21:11:45.324Z,14.70
2022-10-01T21:14:36.157Z,14.70
2022-10-01T21:17:15.198Z,14.70
2022-10-01T21:19:50.740Z,14.70
2022-10-01T21:22:32.431Z,14.70
2022-10-01T21:25:13.784Z,14.70
2022-10-01T21:27:56.378Z,14.70
2022-10-01T21:30:23.388Z,14.70
2022-10-01T21:33:08.370Z,14.70
2022-10-01T21:35:49.194Z,14.70
2022-10-01T21:38:25.991Z,14.70
2022-10-01T21:41:15.104Z,14.70
2022-10-01T21:43:56.536Z,14.70
2022-10-01T21:46:32.557Z,14.70
2022-10-01T21:49:10.414Z,14.70
2022-10-01T21:52:12.289Z,14.70
2022-10-01T21:54:53.641Z,14.70
2022-10-01T21:57:28.417Z,14.70
2022-10-01T22:00:23.064Z,14.70
2022-10-01T22:03:08.714Z,14.70
2022-10-01T22:06:17.805Z,14.60
2022-10-01T22:09:06.307Z,14.60
2022-10-01T22:11:39.265Z,14.60
2022-10-01T22:14:18.007Z,14.60
2022-10-01T22:16:54.403Z,14.60
2022-10-01T22:19:29.785Z,14.60
2022-10-01T22:22:18.335Z,14.60
2022-10-01T22:24:56.937Z,14.60
2022-10-01T22:27:39.551Z,14.60
2022-10-01T22:30:16.573Z,14.60
2022-10-01T22:32:57.158Z,14.60
2022-10-01T22:35:30.969Z,14.60
2022-10-01T22:38:07.134Z,14.60
2022-10-01T22:40:39.920Z,14.60
2022-10-01T22:43:12.624Z,14.60
2022-10-01T22:45:54.695Z,14.60
2022-10-01T22:48:53.026Z,14.60
2022-10-01T22:51:45.494Z,14.60
2022-10-01T22:54:18.021Z,14.60
2022-10-01T22:56:59.379Z,14.60
2022-10-01T22:59:42.186Z,14.60
2022-10-01T23:02:17.192Z,14.60
2022-10-01T23:05:04.459Z,14.60
2022-10-01T23:07:31.104Z,14.60
2022-10-01T23:10:21.685Z,14.60
2022-10-01T23:12:51.209Z,14.60
2022-10-01T23:15:36.638Z,14.60
2022-10-01T23:18:29.739Z,14.60
2022-10-01T23:21:12.457Z,14.60
2022-10-01T23:23:41.546Z,14.60
2022-10-01T23:26:14.441Z,14.60
2022-10-01T23:29:07.369Z,14.50
2022-10-01T23:32:00.009Z,14.50
2022-10-01T23:34:56.793Z,14.50
2022-10-01T23:37:32.302Z,14.50
2022-10-01T23:40:04.444Z,14.50
2022-10-01T23:42:52.021Z,14.50
2022-10-01T23:45:25.167Z,14.50
2022-10-01T23:47:56.678Z,14.50
2022-10-01T23:50:37.395Z,14.50
2022-10-01T23:53:21.246Z,14.50
2022-10-01T23:56:14.630Z,14.50
2022-10-01T23:58:55.448Z,14.50
